Time;durP1;ratioP1;P1;durP2;ratioP2;P2;SDS_P1;SDS_P2;PMS_P1;PMS_P2;Temp;Humidity;BMP_temperature;BMP_pressure;BME280_temperature;BME280_humidity;BME280_pressure;Samples;Min_cycle;Max_cycle;Signal;HPM_P1;HPM_P2
2021/12/21 00:00:44;;;;;;;0.50;0.50;;;;;;;;;;4990450;28;20449;-60
2021/12/21 00:03:10;;;;;;;0.70;0.70;;;;;;;;;;4992161;28;20269;-60
2021/12/21 00:05:36;;;;;;;0.60;0.60;;;;;;;;;;4992296;28;20201;-60
2021/12/21 00:08:04;;;;;;;0.70;0.70;;;;;;;;;;4992352;28;20677;-60
2021/12/21 00:10:31;;;;;;;0.70;0.70;;;;;;;;;;4991436;28;20208;-60
2021/12/21 00:15:41;;;;;;;0.70;0.70;;;;;;;;;;4992080;28;20189;-60
2021/12/21 00:23:35;;;;;;;0.60;0.60;;;;;;;;;;4990662;28;20173;-61
2021/12/21 00:26:04;;;;;;;0.60;0.60;;;;;;;;;;4987689;28;20213;-60
2021/12/21 00:28:35;;;;;;;0.80;0.80;;;;;;;;;;4991712;28;20209;-61
2021/12/21 00:31:01;;;;;;;0.63;0.63;;;;;;;;;;4990139;28;20228;-61
2021/12/21 00:33:27;;;;;;;0.60;0.60;;;;;;;;;;4991990;28;20209;-61
2021/12/21 00:35:53;;;;;;;0.60;0.60;;;;;;;;;;4992034;28;20174;-60
2021/12/21 00:38:19;;;;;;;0.60;0.60;;;;;;;;;;4992210;28;20437;-60
2021/12/21 00:40:45;;;;;;;0.60;0.60;;;;;;;;;;4991152;28;20646;-61
2021/12/21 00:43:11;;;;;;;0.70;0.70;;;;;;;;;;4989174;28;20193;-61
2021/12/21 00:45:36;;;;;;;0.60;0.60;;;;;;;;;;4991766;28;20880;-60
2021/12/21 00:48:03;;;;;;;0.60;0.60;;;;;;;;;;4991685;28;21180;-59
2021/12/21 00:50:29;;;;;;;0.68;0.68;;;;;;;;;;4990974;28;20413;-59
2021/12/21 00:52:55;;;;;;;0.70;0.70;;;;;;;;;;4990459;28;20170;-60
2021/12/21 00:55:22;;;;;;;0.60;0.60;;;;;;;;;;4991698;28;20177;-61
2021/12/21 00:57:48;;;;;;;0.60;0.60;;;;;;;;;;4994079;28;20197;-61
2021/12/21 01:00:15;;;;;;;0.60;0.60;;;;;;;;;;4995009;28;20664;-59
2021/12/21 01:02:42;;;;;;;0.73;0.73;;;;;;;;;;4995659;28;20268;-61
2021/12/21 01:05:16;;;;;;;0.70;0.70;;;;;;;;;;4995400;28;20623;-60
2021/12/21 01:07:46;;;;;;;0.60;0.60;;;;;;;;;;4994181;28;20227;-58
2021/12/21 01:15:26;;;;;;;0.70;0.70;;;;;;;;;;4993204;28;20421;-61
2021/12/21 01:18:08;;;;;;;0.60;0.60;;;;;;;;;;4992660;28;20194;-59
2021/12/21 01:20:43;;;;;;;0.70;0.70;;;;;;;;;;4992265;28;20189;-61
2021/12/21 01:36:17;;;;;;;0.60;0.60;;;;;;;;;;4995108;28;20577;-60
2021/12/21 01:38:59;;;;;;;0.80;0.80;;;;;;;;;;4994987;28;20479;-61
2021/12/21 01:44:29;;;;;;;0.70;0.70;;;;;;;;;;4995254;28;20186;-58
2021/12/21 01:52:00;;;;;;;0.63;0.63;;;;;;;;;;4992524;28;20522;-59
2021/12/21 01:54:26;;;;;;;0.60;0.60;;;;;;;;;;4994598;28;21165;-59
2021/12/21 01:56:53;;;;;;;0.60;0.60;;;;;;;;;;4994799;28;20444;-59
2021/12/21 01:59:19;;;;;;;0.70;0.70;;;;;;;;;;4994567;28;20262;-60
2021/12/21 02:01:44;;;;;;;0.70;0.70;;;;;;;;;;4993816;28;20265;-59
2021/12/21 02:04:15;;;;;;;0.60;0.60;;;;;;;;;;4994257;28;20424;-59
2021/12/21 02:06:41;;;;;;;0.60;0.60;;;;;;;;;;4994385;28;20546;-58
2021/12/21 02:09:07;;;;;;;0.57;0.57;;;;;;;;;;4994015;28;20178;-60
2021/12/21 02:11:33;;;;;;;0.60;0.60;;;;;;;;;;4992502;28;20231;-61
2021/12/21 02:14:00;;;;;;;0.60;0.60;;;;;;;;;;4994323;28;20402;-61
2021/12/21 02:16:35;;;;;;;0.50;0.50;;;;;;;;;;4994168;28;20273;-61
2021/12/21 02:19:14;;;;;;;0.70;0.70;;;;;;;;;;4994242;28;20182;-61
2021/12/21 02:21:47;;;;;;;0.60;0.60;;;;;;;;;;4992126;28;20634;-60
2021/12/21 02:24:21;;;;;;;0.60;0.60;;;;;;;;;;4991309;28;20182;-61
2021/12/21 02:29:17;;;;;;;0.63;0.63;;;;;;;;;;4994002;28;20267;-61
2021/12/21 02:31:47;;;;;;;0.57;0.57;;;;;;;;;;4993306;28;20178;-59
2021/12/21 02:34:14;;;;;;;0.60;0.60;;;;;;;;;;4991642;28;20205;-61
2021/12/21 02:36:41;;;;;;;0.60;0.60;;;;;;;;;;4993859;28;20708;-60
2021/12/21 02:39:07;;;;;;;0.70;0.70;;;;;;;;;;4993771;28;20265;-61
2021/12/21 02:41:34;;;;;;;0.70;0.70;;;;;;;;;;4993104;28;20580;-60
2021/12/21 02:44:00;;;;;;;0.50;0.50;;;;;;;;;;4991978;28;20170;-60
2021/12/21 02:46:26;;;;;;;0.70;0.70;;;;;;;;;;4993586;28;20281;-61
2021/12/21 02:48:52;;;;;;;0.60;0.60;;;;;;;;;;4991028;28;20463;-60
2021/12/21 02:51:18;;;;;;;0.50;0.50;;;;;;;;;;4992925;28;20257;-61
2021/12/21 02:53:44;;;;;;;0.70;0.70;;;;;;;;;;4993591;28;20177;-59
2021/12/21 02:56:11;;;;;;;0.70;0.70;;;;;;;;;;4993310;28;20179;-61
2021/12/21 02:58:37;;;;;;;0.63;0.63;;;;;;;;;;4993419;28;20205;-61
2021/12/21 03:01:04;;;;;;;0.80;0.80;;;;;;;;;;4992754;28;20210;-60
2021/12/21 03:03:30;;;;;;;0.70;0.70;;;;;;;;;;4993362;28;20208;-61
2021/12/21 03:05:57;;;;;;;0.60;0.60;;;;;;;;;;4993250;28;20237;-60
2021/12/21 03:08:35;;;;;;;0.70;0.70;;;;;;;;;;4993115;28;20689;-61
2021/12/21 03:11:12;;;;;;;0.65;0.65;;;;;;;;;;4991184;28;20174;-60
2021/12/21 03:14:03;;;;;;;0.70;0.70;;;;;;;;;;4991596;28;20261;-60
2021/12/21 03:16:30;;;;;;;0.50;0.50;;;;;;;;;;4992634;28;20523;-60
2021/12/21 03:18:57;;;;;;;0.60;0.60;;;;;;;;;;4992601;28;20710;-60
2021/12/21 03:21:23;;;;;;;0.60;0.60;;;;;;;;;;4990781;28;20542;-61
2021/12/21 03:23:49;;;;;;;0.60;0.60;;;;;;;;;;4992932;28;20178;-61
2021/12/21 03:26:15;;;;;;;0.70;0.70;;;;;;;;;;4991411;28;20198;-60
2021/12/21 03:28:41;;;;;;;0.60;0.60;;;;;;;;;;4990082;28;20701;-61
2021/12/21 03:31:07;;;;;;;0.65;0.65;;;;;;;;;;4991955;28;20852;-60
2021/12/21 03:33:33;;;;;;;0.67;0.67;;;;;;;;;;4992739;28;20292;-61
2021/12/21 03:36:01;;;;;;;0.70;0.70;;;;;;;;;;4991476;28;20500;-59
2021/12/21 03:38:27;;;;;;;0.60;0.60;;;;;;;;;;4992504;28;20200;-61
2021/12/21 03:41:00;;;;;;;0.70;0.70;;;;;;;;;;4989519;28;20180;-60
2021/12/21 03:43:29;;;;;;;0.60;0.60;;;;;;;;;;4992670;28;20178;-60
2021/12/21 03:46:03;;;;;;;0.60;0.60;;;;;;;;;;4992641;28;20205;-61
2021/12/21 03:48:29;;;;;;;0.60;0.60;;;;;;;;;;4993010;28;20197;-60
2021/12/21 03:50:55;;;;;;;0.70;0.70;;;;;;;;;;4992256;28;20184;-61
2021/12/21 03:53:21;;;;;;;0.60;0.60;;;;;;;;;;4992765;28;20424;-59
2021/12/21 03:55:54;;;;;;;0.80;0.80;;;;;;;;;;4992880;28;20419;-61
2021/12/21 03:58:20;;;;;;;0.65;0.65;;;;;;;;;;4992677;28;20437;-59
2021/12/21 04:00:46;;;;;;;0.60;0.60;;;;;;;;;;4991979;28;20727;-60
2021/12/21 04:03:12;;;;;;;0.80;0.80;;;;;;;;;;4991418;28;20440;-59
2021/12/21 04:05:38;;;;;;;0.70;0.70;;;;;;;;;;4992621;28;20547;-60
2021/12/21 04:08:04;;;;;;;0.70;0.70;;;;;;;;;;4992356;28;20435;-61
2021/12/21 04:10:30;;;;;;;0.52;0.52;;;;;;;;;;4991880;28;20410;-60
2021/12/21 04:12:56;;;;;;;0.60;0.60;;;;;;;;;;4992546;28;20257;-60
2021/12/21 04:15:24;;;;;;;0.60;0.60;;;;;;;;;;4992453;28;20427;-61
2021/12/21 04:17:50;;;;;;;0.80;0.80;;;;;;;;;;4991121;28;20575;-60
2021/12/21 04:20:16;;;;;;;0.70;0.70;;;;;;;;;;4991786;28;20273;-60
2021/12/21 04:22:42;;;;;;;0.70;0.70;;;;;;;;;;4992401;28;20420;-60
2021/12/21 04:25:08;;;;;;;0.60;0.60;;;;;;;;;;4992317;28;20468;-61
2021/12/21 04:27:34;;;;;;;0.60;0.60;;;;;;;;;;4992021;28;20453;-61
2021/12/21 04:30:00;;;;;;;0.70;0.70;;;;;;;;;;4992378;28;20181;-60
2021/12/21 04:32:26;;;;;;;0.60;0.60;;;;;;;;;;4991709;28;20548;-60
2021/12/21 04:34:52;;;;;;;0.70;0.70;;;;;;;;;;4992325;28;20857;-60
2021/12/21 04:37:19;;;;;;;0.60;0.60;;;;;;;;;;4992709;28;20433;-58
2021/12/21 04:40:05;;;;;;;0.70;0.70;;;;;;;;;;5008341;22;20256;-63
2021/12/21 04:42:31;;;;;;;0.80;0.80;;;;;;;;;;4972673;28;20272;-63
2021/12/21 04:44:56;;;;;;;0.70;0.70;;;;;;;;;;4972404;28;20618;-63
2021/12/21 04:47:22;;;;;;;0.80;0.80;;;;;;;;;;4972584;28;20566;-63
2021/12/21 04:49:48;;;;;;;0.60;0.60;;;;;;;;;;4971330;28;20474;-63
2021/12/21 04:52:15;;;;;;;0.80;0.80;;;;;;;;;;4971970;28;20414;-63
2021/12/21 04:54:41;;;;;;;0.70;0.70;;;;;;;;;;4972743;28;20185;-63
2021/12/21 04:57:07;;;;;;;0.70;0.70;;;;;;;;;;4972625;28;20258;-63
2021/12/21 04:59:33;;;;;;;0.70;0.70;;;;;;;;;;4972542;28;20202;-63
2021/12/21 05:01:59;;;;;;;0.65;0.65;;;;;;;;;;4971821;28;20179;-63
2021/12/21 05:04:25;;;;;;;0.70;0.70;;;;;;;;;;4972437;28;20182;-63
2021/12/21 05:06:51;;;;;;;0.70;0.70;;;;;;;;;;4972429;28;20453;-63
2021/12/21 05:09:24;;;;;;;0.70;0.70;;;;;;;;;;4972411;28;20484;-63
2021/12/21 05:11:53;;;;;;;0.70;0.70;;;;;;;;;;4971838;28;20402;-63
2021/12/21 05:14:19;;;;;;;0.80;0.80;;;;;;;;;;4972705;28;20666;-63
2021/12/21 05:16:45;;;;;;;0.60;0.60;;;;;;;;;;4971048;28;20183;-63
2021/12/21 05:19:10;;;;;;;0.80;0.80;;;;;;;;;;4972492;28;20445;-63
2021/12/21 05:21:36;;;;;;;0.60;0.60;;;;;;;;;;4971666;28;20417;-63
2021/12/21 05:24:03;;;;;;;0.70;0.70;;;;;;;;;;4973174;28;20409;-63
2021/12/21 05:26:29;;;;;;;0.70;0.70;;;;;;;;;;4972730;28;21002;-63
2021/12/21 05:28:55;;;;;;;0.60;0.60;;;;;;;;;;4972240;28;20241;-63
2021/12/21 05:31:21;;;;;;;0.80;0.80;;;;;;;;;;4971025;28;20233;-63
2021/12/21 05:33:50;;;;;;;0.60;0.60;;;;;;;;;;4971972;28;20513;-63
2021/12/21 05:36:16;;;;;;;0.60;0.60;;;;;;;;;;4971918;28;20712;-63
2021/12/21 05:38:48;;;;;;;0.73;0.73;;;;;;;;;;4971599;28;20698;-63
2021/12/21 05:41:22;;;;;;;0.60;0.60;;;;;;;;;;4971222;28;20190;-63
2021/12/21 05:43:48;;;;;;;0.60;0.60;;;;;;;;;;4973305;28;20217;-63
2021/12/21 05:46:14;;;;;;;0.67;0.67;;;;;;;;;;4975529;28;20205;-63
2021/12/21 05:48:40;;;;;;;0.70;0.70;;;;;;;;;;4975630;28;20448;-63
2021/12/21 05:51:06;;;;;;;0.60;0.60;;;;;;;;;;4974784;28;20460;-63
2021/12/21 05:53:32;;;;;;;0.60;0.60;;;;;;;;;;4975481;28;20441;-63
2021/12/21 05:55:58;;;;;;;0.70;0.70;;;;;;;;;;4975449;28;20411;-63
2021/12/21 05:58:24;;;;;;;0.60;0.60;;;;;;;;;;4975276;28;20422;-63
2021/12/21 06:00:50;;;;;;;0.70;0.70;;;;;;;;;;4974588;28;20446;-63
2021/12/21 06:03:15;;;;;;;0.70;0.70;;;;;;;;;;4975133;28;20550;-63
2021/12/21 06:05:43;;;;;;;0.70;0.70;;;;;;;;;;4975011;28;20469;-63
2021/12/21 06:08:09;;;;;;;0.70;0.70;;;;;;;;;;4974200;28;20929;-63
2021/12/21 06:10:39;;;;;;;0.70;0.70;;;;;;;;;;4972846;28;20926;-63
2021/12/21 06:26:13;;;;;;;0.70;0.70;;;;;;;;;;4974725;28;20211;-63
2021/12/21 06:28:39;;;;;;;0.63;0.63;;;;;;;;;;4973023;28;20243;-63
2021/12/21 06:31:05;;;;;;;0.70;0.70;;;;;;;;;;4972432;28;20206;-63
2021/12/21 06:33:32;;;;;;;0.70;0.70;;;;;;;;;;4974555;28;20198;-63
2021/12/21 06:35:58;;;;;;;0.60;0.60;;;;;;;;;;4974174;28;20182;-65
2021/12/21 06:38:24;;;;;;;0.80;0.80;;;;;;;;;;4974026;28;20193;-63
2021/12/21 06:40:50;;;;;;;0.60;0.60;;;;;;;;;;4973531;28;20245;-64
2021/12/21 06:43:17;;;;;;;0.70;0.70;;;;;;;;;;4974523;28;20669;-63
2021/12/21 06:53:33;;;;;;;0.70;0.70;;;;;;;;;;4974354;28;20181;-64
2021/12/21 06:55:59;;;;;;;0.70;0.70;;;;;;;;;;4973679;28;20171;-63
2021/12/21 06:58:25;;;;;;;0.60;0.60;;;;;;;;;;4974223;28;20186;-63
2021/12/21 07:00:52;;;;;;;0.70;0.70;;;;;;;;;;4973555;28;20434;-63
2021/12/21 07:03:19;;;;;;;0.70;0.70;;;;;;;;;;4973480;28;20723;-63
2021/12/21 07:05:46;;;;;;;0.60;0.60;;;;;;;;;;4973768;28;20560;-64
2021/12/21 07:08:13;;;;;;;0.60;0.60;;;;;;;;;;4973759;28;20217;-63
2021/12/21 07:10:40;;;;;;;0.80;0.80;;;;;;;;;;4972956;28;20199;-64
2021/12/21 07:18:36;;;;;;;0.80;0.80;;;;;;;;;;4968597;28;20223;-64
2021/12/21 07:21:02;;;;;;;0.70;0.70;;;;;;;;;;4973098;28;20207;-63
2021/12/21 07:23:30;;;;;;;0.80;0.80;;;;;;;;;;4973899;28;20533;-63
2021/12/21 07:25:56;;;;;;;0.70;0.70;;;;;;;;;;4974321;28;20207;-64
2021/12/21 07:28:21;;;;;;;0.80;0.80;;;;;;;;;;4973767;28;20536;-63
2021/12/21 07:30:47;;;;;;;0.60;0.60;;;;;;;;;;4972822;28;20207;-63
2021/12/21 07:33:14;;;;;;;0.80;0.80;;;;;;;;;;4973148;28;20183;-63
2021/12/21 07:35:40;;;;;;;0.70;0.70;;;;;;;;;;4973415;28;20507;-63
2021/12/21 07:38:06;;;;;;;0.60;0.60;;;;;;;;;;4973246;28;20183;-63
2021/12/21 07:40:32;;;;;;;0.70;0.70;;;;;;;;;;4971376;28;20300;-63
2021/12/21 07:43:00;;;;;;;0.80;0.80;;;;;;;;;;4972538;28;20187;-63
2021/12/21 07:45:26;;;;;;;0.80;0.80;;;;;;;;;;4972605;28;20599;-63
2021/12/21 07:47:52;;;;;;;0.60;0.60;;;;;;;;;;4972965;28;20190;-63
2021/12/21 07:50:19;;;;;;;0.60;0.60;;;;;;;;;;4972758;28;20199;-63
2021/12/21 07:52:45;;;;;;;0.80;0.80;;;;;;;;;;4973198;28;20187;-63
2021/12/21 07:55:11;;;;;;;0.70;0.70;;;;;;;;;;4972508;28;20188;-63
2021/12/21 07:57:37;;;;;;;0.70;0.70;;;;;;;;;;4972925;28;20478;-63
2021/12/21 08:00:04;;;;;;;0.65;0.65;;;;;;;;;;4971553;28;20202;-62
2021/12/21 08:02:30;;;;;;;0.70;0.70;;;;;;;;;;4973132;28;20171;-64
2021/12/21 08:04:56;;;;;;;0.70;0.70;;;;;;;;;;4972871;28;20256;-64
2021/12/21 08:07:29;;;;;;;0.60;0.60;;;;;;;;;;4972870;28;20178;-64
2021/12/21 08:09:55;;;;;;;0.60;0.60;;;;;;;;;;4972142;28;20233;-63
2021/12/21 08:12:21;;;;;;;0.70;0.70;;;;;;;;;;4972195;28;20183;-63
2021/12/21 08:14:49;;;;;;;0.80;0.80;;;;;;;;;;4972981;28;20216;-64
2021/12/21 08:17:15;;;;;;;0.70;0.70;;;;;;;;;;4971866;28;20241;-64
2021/12/21 08:19:41;;;;;;;0.60;0.60;;;;;;;;;;4972193;28;20237;-63
2021/12/21 08:22:07;;;;;;;0.70;0.70;;;;;;;;;;4971552;28;20221;-64
2021/12/21 08:24:33;;;;;;;0.60;0.60;;;;;;;;;;4972900;28;20410;-64
2021/12/21 08:27:00;;;;;;;0.60;0.60;;;;;;;;;;4972931;28;20209;-64
2021/12/21 08:29:29;;;;;;;0.70;0.70;;;;;;;;;;4972606;28;20343;-64
2021/12/21 08:31:55;;;;;;;0.57;0.57;;;;;;;;;;4972094;28;20206;-64
2021/12/21 08:34:22;;;;;;;0.70;0.70;;;;;;;;;;4972919;28;20669;-64
2021/12/21 08:36:48;;;;;;;0.60;0.60;;;;;;;;;;4972808;28;20179;-64
2021/12/21 08:39:16;;;;;;;0.60;0.60;;;;;;;;;;4972591;28;20217;-64
2021/12/21 08:41:43;;;;;;;0.70;0.70;;;;;;;;;;4972041;28;20175;-64
2021/12/21 08:44:11;;;;;;;0.60;0.60;;;;;;;;;;4972866;28;20199;-64
2021/12/21 08:46:37;;;;;;;0.77;0.77;;;;;;;;;;4972579;28;20578;-64
2021/12/21 08:49:04;;;;;;;0.70;0.70;;;;;;;;;;4972665;28;20257;-64
2021/12/21 08:51:29;;;;;;;0.60;0.60;;;;;;;;;;4972030;28;20595;-64
2021/12/21 08:53:55;;;;;;;0.60;0.60;;;;;;;;;;4972707;28;20175;-64
2021/12/21 08:56:21;;;;;;;0.70;0.70;;;;;;;;;;4972630;28;20918;-64
2021/12/21 08:58:47;;;;;;;0.60;0.60;;;;;;;;;;4972672;28;20751;-64
2021/12/21 09:01:13;;;;;;;0.60;0.60;;;;;;;;;;4971921;28;20919;-64
2021/12/21 09:03:39;;;;;;;0.70;0.70;;;;;;;;;;4972643;28;20419;-64
2021/12/21 09:06:05;;;;;;;0.60;0.60;;;;;;;;;;4972497;28;20501;-64
2021/12/21 09:08:32;;;;;;;0.60;0.60;;;;;;;;;;4972453;28;20214;-64
2021/12/21 09:11:03;;;;;;;0.70;0.70;;;;;;;;;;4971749;28;20430;-64
2021/12/21 09:13:29;;;;;;;0.60;0.60;;;;;;;;;;4972771;28;20175;-64
2021/12/21 09:15:55;;;;;;;0.60;0.60;;;;;;;;;;4971534;28;20213;-64
2021/12/21 09:18:21;;;;;;;0.60;0.60;;;;;;;;;;4974298;28;20186;-64
2021/12/21 09:20:47;;;;;;;0.70;0.70;;;;;;;;;;4974792;28;20460;-64
2021/12/21 09:23:13;;;;;;;0.70;0.70;;;;;;;;;;4976399;28;20546;-64
2021/12/21 09:25:39;;;;;;;0.70;0.70;;;;;;;;;;4976152;28;20203;-64
2021/12/21 09:28:05;;;;;;;0.60;0.60;;;;;;;;;;4975035;28;20425;-64
2021/12/21 09:30:31;;;;;;;0.70;0.70;;;;;;;;;;4975567;28;20529;-64
2021/12/21 09:32:57;;;;;;;0.70;0.70;;;;;;;;;;4976157;28;20171;-64
2021/12/21 09:35:24;;;;;;;0.70;0.70;;;;;;;;;;4976232;28;20179;-64
2021/12/21 09:37:50;;;;;;;0.70;0.70;;;;;;;;;;4974844;28;20655;-64
2021/12/21 09:40:20;;;;;;;0.70;0.70;;;;;;;;;;4975142;28;20269;-64
2021/12/21 09:42:46;;;;;;;0.70;0.70;;;;;;;;;;4974668;28;20185;-64
2021/12/21 09:45:13;;;;;;;0.70;0.70;;;;;;;;;;4975643;28;20195;-64
2021/12/21 09:47:39;;;;;;;0.70;0.70;;;;;;;;;;4975742;28;20225;-64
2021/12/21 09:50:06;;;;;;;0.70;0.70;;;;;;;;;;4973912;28;20749;-64
2021/12/21 09:52:32;;;;;;;0.63;0.63;;;;;;;;;;4975480;28;20410;-64
2021/12/21 09:54:59;;;;;;;0.80;0.80;;;;;;;;;;4975607;28;20267;-64
2021/12/21 09:57:25;;;;;;;0.73;0.73;;;;;;;;;;4975686;28;20178;-64
2021/12/21 09:59:51;;;;;;;0.80;0.80;;;;;;;;;;4975375;28;20222;-64
2021/12/21 10:02:20;;;;;;;0.70;0.70;;;;;;;;;;4974869;28;20175;-64
2021/12/21 10:04:47;;;;;;;0.50;0.50;;;;;;;;;;4975291;28;20183;-64
2021/12/21 10:07:14;;;;;;;0.70;0.70;;;;;;;;;;4974854;28;20185;-64
2021/12/21 10:09:46;;;;;;;0.60;0.60;;;;;;;;;;4975023;28;20734;-62
2021/12/21 10:12:15;;;;;;;0.60;0.60;;;;;;;;;;4973988;28;20650;-63
2021/12/21 10:14:41;;;;;;;0.80;0.80;;;;;;;;;;4975332;28;20178;-63
2021/12/21 10:17:09;;;;;;;0.70;0.70;;;;;;;;;;4975042;28;20261;-63
2021/12/21 10:19:36;;;;;;;0.70;0.70;;;;;;;;;;4975056;28;20187;-63
2021/12/21 10:22:15;;;;;;;0.80;0.80;;;;;;;;;;4974393;28;20175;-63
2021/12/21 10:24:45;;;;;;;0.80;0.80;;;;;;;;;;4974948;28;20186;-63
2021/12/21 10:27:11;;;;;;;0.60;0.60;;;;;;;;;;4974921;28;20179;-63
2021/12/21 10:29:44;;;;;;;0.60;0.60;;;;;;;;;;4974725;28;20226;-63
2021/12/21 10:32:30;;;;;;;0.60;0.60;;;;;;;;;;4974325;28;20171;-63
2021/12/21 10:35:01;;;;;;;0.80;0.80;;;;;;;;;;4974989;28;20182;-63
2021/12/21 10:37:32;;;;;;;0.60;0.60;;;;;;;;;;4974910;28;20273;-63
2021/12/21 10:40:06;;;;;;;0.70;0.70;;;;;;;;;;4989266;23;20253;-60
2021/12/21 10:42:32;;;;;;;0.50;0.50;;;;;;;;;;4970383;28;20182;-60
2021/12/21 10:45:03;;;;;;;0.70;0.70;;;;;;;;;;4973365;28;20698;-60
2021/12/21 10:47:30;;;;;;;0.70;0.70;;;;;;;;;;4974567;28;20175;-60
2021/12/21 10:49:56;;;;;;;0.63;0.63;;;;;;;;;;4974437;28;20183;-60
2021/12/21 10:52:22;;;;;;;0.50;0.50;;;;;;;;;;4973958;28;20245;-62
2021/12/21 10:54:48;;;;;;;0.60;0.60;;;;;;;;;;4973927;28;20176;-62
2021/12/21 10:57:35;;;;;;;0.70;0.70;;;;;;;;;;4973530;28;20203;-62
2021/12/21 11:00:04;;;;;;;0.73;0.73;;;;;;;;;;4974142;28;20625;-62
2021/12/21 11:02:33;;;;;;;0.75;0.75;;;;;;;;;;4974119;28;20183;-62
2021/12/21 11:05:01;;;;;;;0.60;0.60;;;;;;;;;;4974294;28;20202;-62
2021/12/21 11:10:17;;;;;;;0.50;0.50;;;;;;;;;;4972127;28;20241;-62
2021/12/21 11:12:45;;;;;;;0.60;0.60;;;;;;;;;;4973924;28;20167;-62
2021/12/21 11:15:19;;;;;;;0.60;0.60;;;;;;;;;;4974326;28;20648;-62
2021/12/21 11:17:45;;;;;;;0.50;0.50;;;;;;;;;;4974000;28;20703;-60
2021/12/21 11:20:12;;;;;;;0.70;0.70;;;;;;;;;;4973509;28;20191;-62
2021/12/21 11:22:39;;;;;;;0.60;0.60;;;;;;;;;;4974348;28;20179;-62
2021/12/21 11:25:05;;;;;;;0.50;0.50;;;;;;;;;;4973998;28;20674;-62
2021/12/21 11:27:33;;;;;;;0.60;0.60;;;;;;;;;;4974120;28;20183;-62
2021/12/21 11:30:01;;;;;;;0.50;0.50;;;;;;;;;;4974207;28;20218;-62
2021/12/21 11:32:29;;;;;;;0.50;0.50;;;;;;;;;;4972369;28;20227;-62
2021/12/21 11:37:46;;;;;;;0.50;0.50;;;;;;;;;;4981719;28;20285;-60
2021/12/21 11:40:13;;;;;;;0.70;0.70;;;;;;;;;;4972506;28;20302;-61
2021/12/21 11:42:59;;;;;;;0.50;0.50;;;;;;;;;;4973991;28;20181;-62
2021/12/21 11:45:32;;;;;;;0.50;0.50;;;;;;;;;;4971893;28;20593;-60
2021/12/21 11:48:11;;;;;;;0.50;0.50;;;;;;;;;;4973550;28;20175;-59
2021/12/21 11:50:47;;;;;;;0.40;0.40;;;;;;;;;;4971597;28;20210;-59
2021/12/21 11:53:14;;;;;;;0.40;0.40;;;;;;;;;;4973239;28;20181;-60
2021/12/21 11:55:41;;;;;;;0.40;0.40;;;;;;;;;;4973328;28;20282;-60
2021/12/21 11:58:34;;;;;;;0.40;0.40;;;;;;;;;;4973597;28;20258;-60
2021/12/21 12:01:03;;;;;;;0.40;0.40;;;;;;;;;;4974077;28;20218;-59
2021/12/21 12:03:30;;;;;;;0.40;0.40;;;;;;;;;;4973765;28;20654;-59
2021/12/21 12:06:01;;;;;;;0.40;0.40;;;;;;;;;;4972098;28;20215;-60
2021/12/21 12:08:29;;;;;;;0.40;0.40;;;;;;;;;;4973249;28;20179;-60
2021/12/21 12:10:57;;;;;;;0.40;0.40;;;;;;;;;;4972384;28;20202;-60
2021/12/21 12:13:27;;;;;;;0.40;0.40;;;;;;;;;;4973334;28;20674;-60
2021/12/21 12:15:56;;;;;;;0.40;0.40;;;;;;;;;;4974174;28;20599;-59
2021/12/21 12:18:23;;;;;;;0.40;0.40;;;;;;;;;;4973653;28;20181;-60
2021/12/21 12:20:50;;;;;;;0.40;0.40;;;;;;;;;;4972414;28;20191;-60
2021/12/21 12:23:19;;;;;;;0.40;0.40;;;;;;;;;;4972727;28;20183;-61
2021/12/21 12:25:56;;;;;;;0.40;0.40;;;;;;;;;;4971684;28;20796;-61
2021/12/21 12:28:33;;;;;;;0.40;0.40;;;;;;;;;;4973035;28;20175;-61
2021/12/21 12:31:00;;;;;;;0.40;0.40;;;;;;;;;;4969131;28;20211;-59
2021/12/21 12:33:37;;;;;;;0.40;0.40;;;;;;;;;;4972209;28;20617;-56
2021/12/21 12:36:03;;;;;;;0.50;0.50;;;;;;;;;;4972405;28;20178;-60
2021/12/21 12:38:29;;;;;;;0.50;0.50;;;;;;;;;;4971716;28;20679;-60
2021/12/21 12:40:57;;;;;;;0.50;0.50;;;;;;;;;;4972028;28;20221;-60
2021/12/21 12:43:24;;;;;;;0.45;0.45;;;;;;;;;;4972879;28;20183;-59
2021/12/21 12:45:52;;;;;;;0.40;0.40;;;;;;;;;;4972806;28;20207;-59
2021/12/21 12:48:21;;;;;;;0.40;0.40;;;;;;;;;;4968731;28;20187;-61
2021/12/21 12:50:47;;;;;;;0.40;0.40;;;;;;;;;;4954880;28;20194;-61
2021/12/21 12:53:13;;;;;;;0.40;0.40;;;;;;;;;;4974867;28;20189;-60
2021/12/21 12:55:45;;;;;;;0.40;0.40;;;;;;;;;;4976960;28;20210;-60
2021/12/21 12:58:19;;;;;;;0.40;0.40;;;;;;;;;;4976690;28;20175;-60
2021/12/21 13:00:45;;;;;;;0.50;0.50;;;;;;;;;;4975952;28;20245;-60
2021/12/21 13:03:12;;;;;;;0.40;0.40;;;;;;;;;;4977032;28;20705;-60
2021/12/21 13:05:41;;;;;;;0.40;0.40;;;;;;;;;;4975543;28;20214;-60
2021/12/21 13:08:15;;;;;;;0.40;0.40;;;;;;;;;;4976674;28;20195;-60
2021/12/21 13:10:43;;;;;;;0.50;0.50;;;;;;;;;;4974113;28;20206;-59
2021/12/21 13:13:09;;;;;;;0.50;0.50;;;;;;;;;;4975104;28;20178;-60
2021/12/21 13:15:41;;;;;;;0.50;0.50;;;;;;;;;;4976144;28;20617;-61
2021/12/21 13:18:08;;;;;;;0.40;0.40;;;;;;;;;;4959214;28;20438;-60
2021/12/21 13:20:35;;;;;;;0.40;0.40;;;;;;;;;;4975576;28;20195;-60
2021/12/21 13:23:16;;;;;;;0.50;0.50;;;;;;;;;;4976355;28;20221;-60
2021/12/21 13:25:59;;;;;;;0.50;0.50;;;;;;;;;;4974740;28;20248;-60
2021/12/21 13:28:26;;;;;;;0.50;0.50;;;;;;;;;;4976103;28;20176;-60
2021/12/21 13:30:54;;;;;;;0.50;0.50;;;;;;;;;;4975481;28;20198;-60
2021/12/21 13:33:24;;;;;;;0.50;0.50;;;;;;;;;;4976323;28;20635;-59
2021/12/21 13:35:51;;;;;;;0.50;0.50;;;;;;;;;;4975763;28;20178;-59
2021/12/21 13:38:18;;;;;;;0.50;0.50;;;;;;;;;;4977026;28;20178;-60
2021/12/21 13:40:47;;;;;;;0.40;0.40;;;;;;;;;;4975406;28;20276;-60
2021/12/21 13:43:14;;;;;;;0.50;0.50;;;;;;;;;;4976081;28;20179;-58
2021/12/21 13:45:41;;;;;;;0.50;0.50;;;;;;;;;;4974745;28;20204;-58
2021/12/21 13:48:15;;;;;;;0.50;0.50;;;;;;;;;;4974480;28;20178;-60
2021/12/21 13:50:41;;;;;;;0.50;0.50;;;;;;;;;;4975223;28;20689;-60
2021/12/21 13:53:07;;;;;;;0.50;0.50;;;;;;;;;;4975866;28;20177;-59
2021/12/21 13:55:33;;;;;;;0.50;0.50;;;;;;;;;;4976067;28;20178;-57
2021/12/21 13:58:02;;;;;;;0.50;0.50;;;;;;;;;;4975646;28;20504;-60
2021/12/21 14:00:30;;;;;;;0.60;0.60;;;;;;;;;;4975042;28;20432;-59
2021/12/21 14:03:05;;;;;;;0.50;0.50;;;;;;;;;;4975467;28;20679;-61
2021/12/21 14:05:48;;;;;;;0.50;0.50;;;;;;;;;;4974144;28;20236;-60
2021/12/21 14:08:16;;;;;;;0.50;0.50;;;;;;;;;;4975439;28;20174;-61
2021/12/21 14:10:47;;;;;;;0.60;0.60;;;;;;;;;;4974769;28;20660;-61
2021/12/21 14:13:13;;;;;;;0.60;0.60;;;;;;;;;;4974267;28;20182;-60
2021/12/21 14:15:41;;;;;;;0.50;0.50;;;;;;;;;;4974183;28;20277;-60
2021/12/21 14:18:16;;;;;;;0.50;0.50;;;;;;;;;;4974149;28;20192;-61
2021/12/21 14:20:42;;;;;;;0.50;0.50;;;;;;;;;;4972986;28;20214;-60
2021/12/21 14:23:08;;;;;;;0.50;0.50;;;;;;;;;;4974239;28;20556;-60
2021/12/21 14:25:34;;;;;;;0.50;0.50;;;;;;;;;;4975161;28;20206;-60
2021/12/21 14:28:07;;;;;;;0.50;0.50;;;;;;;;;;4975086;28;20516;-63
2021/12/21 14:30:33;;;;;;;0.60;0.60;;;;;;;;;;4974453;28;20197;-60
2021/12/21 14:33:07;;;;;;;0.60;0.60;;;;;;;;;;4974082;28;20208;-58
2021/12/21 14:35:37;;;;;;;0.50;0.50;;;;;;;;;;4975169;28;20670;-59
2021/12/21 14:38:11;;;;;;;0.60;0.60;;;;;;;;;;4975019;28;20650;-61
2021/12/21 14:40:44;;;;;;;0.60;0.60;;;;;;;;;;4972836;28;20211;-61
2021/12/21 14:43:33;;;;;;;0.70;0.70;;;;;;;;;;4973730;28;20230;-60
2021/12/21 14:45:59;;;;;;;0.60;0.60;;;;;;;;;;4973512;28;20226;-62
2021/12/21 14:48:27;;;;;;;0.60;0.60;;;;;;;;;;4974870;28;20179;-60
2021/12/21 14:51:04;;;;;;;0.60;0.60;;;;;;;;;;4972708;28;20202;-62
2021/12/21 14:53:42;;;;;;;0.60;0.60;;;;;;;;;;4973342;28;20264;-61
2021/12/21 14:56:08;;;;;;;0.70;0.70;;;;;;;;;;4973559;28;20536;-61
2021/12/21 14:58:34;;;;;;;0.60;0.60;;;;;;;;;;4973376;28;20175;-60
2021/12/21 15:01:03;;;;;;;0.70;0.70;;;;;;;;;;4973887;28;20946;-60
2021/12/21 15:03:37;;;;;;;0.50;0.50;;;;;;;;;;4972225;28;20414;-62
2021/12/21 15:06:04;;;;;;;0.57;0.57;;;;;;;;;;4974519;28;20574;-61
2021/12/21 15:08:33;;;;;;;0.50;0.50;;;;;;;;;;4972933;28;20175;-62
2021/12/21 15:10:59;;;;;;;0.63;0.63;;;;;;;;;;4972404;28;20729;-61
2021/12/21 15:13:25;;;;;;;0.60;0.60;;;;;;;;;;4974501;28;20179;-62
2021/12/21 15:15:51;;;;;;;0.60;0.60;;;;;;;;;;4973102;28;20505;-62
2021/12/21 15:18:17;;;;;;;0.57;0.57;;;;;;;;;;4974289;28;20410;-62
2021/12/21 15:20:44;;;;;;;0.60;0.60;;;;;;;;;;4973656;28;20474;-62
2021/12/21 15:23:11;;;;;;;0.70;0.70;;;;;;;;;;4974178;28;20183;-62
2021/12/21 15:25:38;;;;;;;0.60;0.60;;;;;;;;;;4973730;28;20281;-59
2021/12/21 15:28:04;;;;;;;0.70;0.70;;;;;;;;;;4973942;28;20183;-62
2021/12/21 15:30:30;;;;;;;0.60;0.60;;;;;;;;;;4973248;28;20195;-62
2021/12/21 15:32:57;;;;;;;0.60;0.60;;;;;;;;;;4974302;28;20226;-62
2021/12/21 15:35:24;;;;;;;0.60;0.60;;;;;;;;;;4974019;28;20806;-59
2021/12/21 15:37:50;;;;;;;0.70;0.70;;;;;;;;;;4972764;28;20211;-60
2021/12/21 15:40:18;;;;;;;0.60;0.60;;;;;;;;;;4973023;28;20297;-59
2021/12/21 15:42:45;;;;;;;0.60;0.60;;;;;;;;;;4973991;28;20691;-60
2021/12/21 15:45:11;;;;;;;0.60;0.60;;;;;;;;;;4973603;28;20218;-60
2021/12/21 15:47:37;;;;;;;0.60;0.60;;;;;;;;;;4973949;28;20631;-62
2021/12/21 15:50:07;;;;;;;0.50;0.50;;;;;;;;;;4973265;28;20199;-60
2021/12/21 15:52:33;;;;;;;0.60;0.60;;;;;;;;;;4972279;28;20314;-62
2021/12/21 15:54:59;;;;;;;0.60;0.60;;;;;;;;;;4973607;28;20183;-62
2021/12/21 15:57:25;;;;;;;0.60;0.60;;;;;;;;;;4972017;28;20176;-60